Time;durP1;ratioP1;P1;durP2;ratioP2;P2;SDS_P1;SDS_P2;PMS_P1;PMS_P2;Temp;Humidity;BMP_temperature;BMP_pressure;BME280_temperature;BME280_humidity;BME280_pressure;Samples;Min_cycle;Max_cycle;Signal;HPM_P1;HPM_P2
2024/01/06 00:00:28;;;;;;;14.02;8.35;;;;;;;5.32;100.00;100224.78;4797941;29;20067;-72
2024/01/06 00:02:53;;;;;;;15.40;7.80;;;;;;;5.30;100.00;100232.66;4803777;29;20031;-71
2024/01/06 00:05:18;;;;;;;14.40;8.00;;;;;;;5.30;100.00;100233.47;4800660;29;20563;-71
2024/01/06 00:07:44;;;;;;;16.77;8.23;;;;;;;5.26;100.00;100226.22;4792960;29;20035;-72
2024/01/06 00:10:09;;;;;;;14.15;8.23;;;;;;;5.25;100.00;100239.28;4798887;29;20046;-71
2024/01/06 00:12:34;;;;;;;13.38;7.95;;;;;;;5.35;100.00;100251.81;4797182;29;20043;-72
2024/01/06 00:15:00;;;;;;;12.52;8.25;;;;;;;5.17;100.00;100247.78;4794804;29;20031;-71
2024/01/06 00:17:25;;;;;;;15.80;8.70;;;;;;;5.25;100.00;100249.59;4794676;29;20038;-71
2024/01/06 00:19:51;;;;;;;14.43;9.50;;;;;;;5.17;100.00;100253.34;4794817;29;20063;-71
2024/01/06 00:22:20;;;;;;;13.75;8.25;;;;;;;5.14;100.00;100256.81;4794447;29;20498;-71
2024/01/06 00:24:45;;;;;;;15.20;9.25;;;;;;;5.05;100.00;100257.78;4796525;29;20466;-73
2024/01/06 00:27:11;;;;;;;16.30;8.85;;;;;;;5.16;100.00;100255.28;4801624;29;20070;-74
2024/01/06 00:29:36;;;;;;;16.02;8.57;;;;;;;4.99;100.00;100263.94;4798751;29;20030;-72
2024/01/06 00:32:01;;;;;;;19.65;9.38;;;;;;;4.79;100.00;100263.81;4798827;29;20162;-73
2024/01/06 00:34:26;;;;;;;16.38;9.48;;;;;;;4.88;100.00;100260.88;4796817;29;20410;-73
2024/01/06 00:36:52;;;;;;;15.07;8.88;;;;;;;4.55;100.00;100269.47;4796971;29;20499;-73
2024/01/06 00:39:18;;;;;;;16.65;9.82;;;;;;;4.86;100.00;100264.00;4800603;29;20500;-72
2024/01/06 00:41:43;;;;;;;16.02;8.85;;;;;;;4.60;100.00;100272.00;4788635;29;20131;-71
2024/01/06 00:44:09;;;;;;;16.73;9.63;;;;;;;4.70;100.00;100277.00;4789102;29;20042;-73
2024/01/06 00:46:34;;;;;;;19.60;9.45;;;;;;;4.71;100.00;100275.06;4793058;29;20035;-75
2024/01/06 00:48:59;;;;;;;20.85;10.55;;;;;;;4.69;100.00;100283.72;4792192;29;20049;-74
2024/01/06 00:51:25;;;;;;;16.60;10.43;;;;;;;4.71;100.00;100275.06;4793080;29;20039;-74
2024/01/06 00:53:50;;;;;;;15.75;8.95;;;;;;;4.55;100.00;100275.81;4800881;29;20103;-75
2024/01/06 00:56:15;;;;;;;17.58;9.75;;;;;;;4.28;100.00;100271.88;4794586;29;20121;-74
2024/01/06 00:58:41;;;;;;;17.33;8.90;;;;;;;4.44;100.00;100280.25;4784638;29;20403;-74
2024/01/06 01:01:06;;;;;;;14.95;9.23;;;;;;;4.58;100.00;100288.19;4793721;29;20482;-74
2024/01/06 01:03:31;;;;;;;14.35;8.45;;;;;;;4.44;100.00;100278.25;4794258;29;20066;-74
2024/01/06 01:05:57;;;;;;;14.48;9.02;;;;;;;4.50;100.00;100278.84;4795439;29;20522;-74
2024/01/06 01:08:22;;;;;;;15.00;7.82;;;;;;;4.69;100.00;100287.31;4793826;29;20042;-75
2024/01/06 01:10:48;;;;;;;18.23;9.40;;;;;;;4.47;100.00;100274.81;4789242;29;20031;-74
2024/01/06 01:13:13;;;;;;;16.35;9.07;;;;;;;4.57;100.00;100286.53;4795806;29;20039;-74
2024/01/06 01:15:38;;;;;;;16.77;9.02;;;;;;;4.42;100.00;100288.88;4797752;29;20470;-74
2024/01/06 01:18:04;;;;;;;16.77;9.95;;;;;;;4.59;100.00;100293.34;4800039;29;20787;-74
2024/01/06 01:20:29;;;;;;;19.48;10.85;;;;;;;4.56;100.00;100290.50;4792343;29;20042;-74
2024/01/06 01:22:55;;;;;;;19.23;11.02;;;;;;;4.55;100.00;100292.44;4791324;29;20035;-75
2024/01/06 01:25:20;;;;;;;22.33;11.40;;;;;;;4.54;100.00;100296.38;4789005;29;20051;-75
2024/01/06 01:27:45;;;;;;;22.10;11.82;;;;;;;4.44;100.00;100299.63;4791079;29;20062;-74
2024/01/06 01:30:11;;;;;;;24.55;11.65;;;;;;;4.30;100.00;100313.06;4797377;29;20062;-75
2024/01/06 01:32:37;;;;;;;23.17;11.98;;;;;;;4.16;100.00;100303.16;4793301;29;20152;-73
2024/01/06 01:35:03;;;;;;;21.23;11.48;;;;;;;4.13;100.00;100317.69;4801254;29;20037;-74
2024/01/06 01:37:28;;;;;;;28.10;12.63;;;;;;;4.09;100.00;100302.94;4794677;29;20066;-74
2024/01/06 01:39:53;;;;;;;22.75;12.48;;;;;;;4.19;100.00;100312.72;4790709;29;20215;-74
2024/01/06 01:42:19;;;;;;;24.50;12.75;;;;;;;4.16;100.00;100314.25;4794280;29;20046;-74
2024/01/06 01:44:44;;;;;;;24.33;12.93;;;;;;;4.31;100.00;100326.56;4788714;29;20039;-75
2024/01/06 01:47:10;;;;;;;24.00;13.13;;;;;;;4.46;100.00;100328.59;4797058;29;20096;-74
2024/01/06 01:49:35;;;;;;;23.73;12.85;;;;;;;4.44;100.00;100327.34;4789129;29;20633;-73
2024/01/06 01:52:01;;;;;;;25.00;12.68;;;;;;;4.19;100.00;100335.69;4789966;29;20122;-73
2024/01/06 01:54:27;;;;;;;24.83;13.00;;;;;;;4.10;100.00;100337.00;4788861;29;20043;-72
2024/01/06 01:56:53;;;;;;;23.42;11.75;;;;;;;4.10;100.00;100331.44;4790631;29;20114;-71
2024/01/06 01:59:19;;;;;;;21.00;11.93;;;;;;;4.38;100.00;100337.06;4799944;29;20035;-70
2024/01/06 02:01:45;;;;;;;20.90;10.73;;;;;;;4.34;100.00;100341.69;4792573;29;20582;-72
2024/01/06 02:04:11;;;;;;;21.63;12.13;;;;;;;4.11;100.00;100339.41;4795060;29;20121;-72
2024/01/06 02:06:36;;;;;;;24.15;12.43;;;;;;;4.40;100.00;100357.72;4785707;29;20521;-72
2024/01/06 02:09:02;;;;;;;19.73;11.10;;;;;;;4.17;100.00;100349.06;4790583;29;20032;-71
2024/01/06 02:11:27;;;;;;;21.52;10.98;;;;;;;4.39;100.00;100356.13;4794987;29;20502;-73
2024/01/06 02:13:52;;;;;;;22.23;11.20;;;;;;;4.20;100.00;100353.94;4795746;29;20035;-72
2024/01/06 02:16:18;;;;;;;21.23;11.57;;;;;;;4.23;100.00;100353.22;4793963;29;20069;-73
2024/01/06 02:18:43;;;;;;;23.67;12.80;;;;;;;4.11;100.00;100358.81;4796830;29;20035;-72
2024/01/06 02:21:09;;;;;;;25.60;12.13;;;;;;;4.38;100.00;100364.75;4791098;29;20690;-72
2024/01/06 02:23:36;;;;;;;19.10;11.65;;;;;;;4.27;100.00;100359.69;4791961;29;20058;-72
2024/01/06 02:26:02;;;;;;;21.90;11.30;;;;;;;4.50;100.00;100367.53;4792978;29;20506;-71
2024/01/06 02:28:28;;;;;;;25.63;13.30;;;;;;;4.33;100.00;100367.78;4796790;29;20099;-72
2024/01/06 02:30:53;;;;;;;24.25;13.57;;;;;;;4.28;100.00;100377.16;4799028;29;20035;-73
2024/01/06 02:33:24;;;;;;;23.88;12.05;;;;;;;4.35;100.00;100382.91;4797310;29;20043;-72
2024/01/06 02:35:49;;;;;;;22.85;13.27;;;;;;;4.33;100.00;100384.41;4797640;29;20035;-71
2024/01/06 02:38:15;;;;;;;25.38;13.77;;;;;;;4.18;100.00;100389.50;4796043;29;20054;-72
2024/01/06 02:40:40;;;;;;;24.98;12.75;;;;;;;4.12;100.00;100399.19;4798745;29;20034;-71
2024/01/06 02:43:05;;;;;;;21.05;11.77;;;;;;;4.16;100.00;100397.34;4792367;29;20482;-72
2024/01/06 02:45:31;;;;;;;21.67;11.77;;;;;;;4.06;100.00;100397.78;4797857;29;20035;-72
2024/01/06 02:47:56;;;;;;;23.95;13.15;;;;;;;4.04;100.00;100405.63;4792175;29;20031;-72
2024/01/06 02:50:22;;;;;;;25.63;13.18;;;;;;;3.77;100.00;100407.91;4802081;29;20430;-71
2024/01/06 02:52:47;;;;;;;25.75;13.30;;;;;;;3.96;100.00;100401.00;4798696;29;20744;-70
2024/01/06 02:55:13;;;;;;;23.95;12.45;;;;;;;3.86;100.00;100410.59;4795412;29;20037;-71
2024/01/06 02:57:38;;;;;;;25.98;13.65;;;;;;;4.02;100.00;100414.28;4809127;29;20034;-71
2024/01/06 03:00:04;;;;;;;24.50;13.30;;;;;;;4.20;100.00;100420.44;4798301;29;20035;-74
2024/01/06 03:02:30;;;;;;;24.73;13.55;;;;;;;4.33;100.00;100423.19;4802702;29;20406;-72
2024/01/06 03:04:56;;;;;;;24.77;12.20;;;;;;;3.95;100.00;100430.66;4792044;29;20082;-75
2024/01/06 03:07:21;;;;;;;21.52;13.20;;;;;;;3.91;100.00;100423.41;4800450;29;20119;-75
2024/01/06 03:09:47;;;;;;;22.65;12.63;;;;;;;4.02;100.00;100419.03;4797642;29;20126;-74
2024/01/06 03:12:12;;;;;;;21.30;10.75;;;;;;;4.12;100.00;100426.88;4795481;29;20763;-75
2024/01/06 03:14:38;;;;;;;21.27;11.13;;;;;;;4.10;100.00;100433.94;4800017;29;20031;-74
2024/01/06 03:17:03;;;;;;;18.08;10.32;;;;;;;4.05;100.00;100434.97;4803939;29;20104;-74
2024/01/06 03:19:30;;;;;;;22.73;11.25;;;;;;;4.28;100.00;100447.22;4800288;29;20047;-74
2024/01/06 03:21:55;;;;;;;20.33;12.27;;;;;;;3.79;100.00;100446.31;4799049;29;20130;-74
2024/01/06 03:24:22;;;;;;;22.02;10.13;;;;;;;3.67;100.00;100452.66;4796006;29;20157;-74
2024/01/06 03:26:48;;;;;;;20.15;10.48;;;;;;;4.06;100.00;100453.19;4788042;29;20059;-74
2024/01/06 03:29:13;;;;;;;20.70;10.80;;;;;;;4.03;100.00;100449.16;4794932;29;20031;-74
2024/01/06 03:31:45;;;;;;;19.90;11.02;;;;;;;4.13;100.00;100464.50;4802188;29;20031;-74
2024/01/06 03:34:13;;;;;;;23.00;11.07;;;;;;;3.93;100.00;100466.22;4799152;29;20039;-74
2024/01/06 03:36:39;;;;;;;23.02;11.52;;;;;;;4.03;100.00;100476.84;4799428;29;20043;-74
2024/01/06 03:39:05;;;;;;;22.45;11.57;;;;;;;4.27;100.00;100478.03;4788668;29;20035;-75
2024/01/06 03:41:30;;;;;;;24.40;12.77;;;;;;;4.30;100.00;100484.84;4796837;29;20035;-74
2024/01/06 03:43:56;;;;;;;23.05;11.38;;;;;;;3.68;100.00;100487.47;4789395;29;20088;-74
2024/01/06 03:46:22;;;;;;;23.70;12.07;;;;;;;3.93;100.00;100482.03;4800919;29;20075;-73
2024/01/06 03:48:47;;;;;;;20.17;10.25;;;;;;;3.98;100.00;100490.91;4799520;29;20031;-74
2024/01/06 03:51:13;;;;;;;19.98;10.43;;;;;;;4.16;100.00;100502.59;4796579;29;20510;-73
2024/01/06 03:53:40;;;;;;;19.52;10.27;;;;;;;4.21;100.00;100496.81;4799745;29;20035;-73
2024/01/06 03:56:05;;;;;;;22.40;12.10;;;;;;;4.02;100.00;100507.66;4796904;29;20050;-73
2024/01/06 03:58:30;;;;;;;21.20;11.93;;;;;;;4.24;100.00;100509.22;4785709;29;20737;-74
2024/01/06 04:00:56;;;;;;;18.20;9.20;;;;;;;4.20;100.00;100511.84;4796653;29;20494;-74
2024/01/06 04:03:21;;;;;;;19.83;9.65;;;;;;;4.15;100.00;100514.00;4798316;29;20031;-74
2024/01/06 04:05:46;;;;;;;18.80;10.77;;;;;;;3.93;100.00;100520.78;4794651;29;20383;-74
2024/01/06 04:08:12;;;;;;;21.70;10.57;;;;;;;3.97;100.00;100527.25;4798655;29;20058;-76
2024/01/06 04:10:37;;;;;;;20.90;12.32;;;;;;;3.90;100.00;100521.44;4792949;29;20491;-74
2024/01/06 04:13:03;;;;;;;21.33;11.27;;;;;;;4.23;100.00;100533.31;4791829;29;20034;-74
2024/01/06 04:15:28;;;;;;;19.77;10.60;;;;;;;4.20;100.00;100530.44;4791268;29;20039;-74
2024/01/06 04:17:54;;;;;;;21.35;11.60;;;;;;;4.06;100.00;100530.72;4792108;29;20047;-74
2024/01/06 04:20:19;;;;;;;20.25;10.88;;;;;;;3.79;100.00;100527.41;4801859;29;20054;-73
2024/01/06 04:22:45;;;;;;;21.13;10.80;;;;;;;3.92;100.00;100530.22;4795973;29;20046;-74
2024/01/06 04:25:10;;;;;;;19.48;10.80;;;;;;;3.89;100.00;100531.72;4789376;29;20050;-73
2024/01/06 04:27:35;;;;;;;22.88;12.18;;;;;;;3.72;100.00;100534.66;4802217;29;20045;-74
2024/01/06 04:30:01;;;;;;;22.00;11.68;;;;;;;3.74;100.00;100530.41;4789012;29;20559;-74
2024/01/06 04:32:27;;;;;;;27.77;12.23;;;;;;;3.79;100.00;100541.25;4786888;29;20072;-74
2024/01/06 04:34:52;;;;;;;20.80;10.52;;;;;;;3.60;100.00;100546.50;4786259;29;20573;-73
2024/01/06 04:37:18;;;;;;;16.98;10.23;;;;;;;3.59;100.00;100550.41;4794891;29;20058;-73
2024/01/06 04:39:43;;;;;;;18.92;11.00;;;;;;;3.45;100.00;100557.00;4797519;29;20031;-73
2024/01/06 04:42:08;;;;;;;26.17;12.52;;;;;;;3.67;100.00;100552.31;4796575;29;20027;-74
2024/01/06 04:44:34;;;;;;;17.40;10.18;;;;;;;3.79;100.00;100554.28;4794154;29;20058;-74
2024/01/06 04:46:59;;;;;;;21.63;11.73;;;;;;;3.60;100.00;100557.56;4788910;29;20757;-74
2024/01/06 04:49:24;;;;;;;21.83;11.55;;;;;;;3.51;100.00;100560.41;4795035;29;20511;-75
2024/01/06 04:51:50;;;;;;;18.88;11.57;;;;;;;3.69;100.00;100554.72;4785169;29;20117;-75
2024/01/06 04:54:15;;;;;;;19.70;11.07;;;;;;;3.59;100.00;100558.72;4789966;29;20049;-74
2024/01/06 04:56:40;;;;;;;22.95;11.23;;;;;;;3.83;100.00;100561.56;4799911;29;20043;-74
2024/01/06 04:59:06;;;;;;;21.45;10.93;;;;;;;3.62;100.00;100571.88;4798450;29;20031;-75
2024/01/06 05:01:32;;;;;;;19.60;11.02;;;;;;;3.34;100.00;100566.88;4792478;29;20111;-74
2024/01/06 05:03:58;;;;;;;22.13;11.45;;;;;;;3.79;100.00;100571.72;4794136;29;20034;-74
2024/01/06 05:06:24;;;;;;;25.52;12.75;;;;;;;3.89;100.00;100575.22;4788266;29;20035;-74
2024/01/06 05:08:49;;;;;;;19.83;11.02;;;;;;;3.71;100.00;100578.16;4789835;29;20037;-75
2024/01/06 05:11:15;;;;;;;22.25;11.80;;;;;;;3.84;100.00;100574.28;4790618;29;20405;-74
2024/01/06 05:13:40;;;;;;;19.08;11.98;;;;;;;3.73;100.00;100584.16;4797679;29;20509;-76
2024/01/06 05:16:06;;;;;;;20.05;11.55;;;;;;;3.41;100.00;100582.94;4789583;29;20046;-74
2024/01/06 05:18:32;;;;;;;18.73;11.20;;;;;;;3.68;100.00;100581.59;4794454;29;20042;-74
2024/01/06 05:20:57;;;;;;;21.73;11.40;;;;;;;3.66;100.00;100583.88;4793277;29;20043;-74
2024/01/06 05:23:23;;;;;;;23.25;12.00;;;;;;;3.84;100.00;100590.09;4796979;29;20035;-73
2024/01/06 05:25:48;;;;;;;22.73;11.93;;;;;;;3.81;100.00;100602.63;4787109;29;20058;-72
2024/01/06 05:28:13;;;;;;;20.58;12.80;;;;;;;3.72;100.00;100604.69;4797764;29;20104;-73
2024/01/06 05:30:39;;;;;;;24.08;12.20;;;;;;;4.00;100.00;100609.66;4787945;29;20039;-71
2024/01/06 05:33:04;;;;;;;24.63;13.45;;;;;;;4.08;100.00;100612.34;4796272;29;20123;-71
2024/01/06 05:35:30;;;;;;;23.45;12.45;;;;;;;3.76;100.00;100621.44;4788024;29;20129;-72
2024/01/06 05:37:55;;;;;;;21.63;13.23;;;;;;;3.78;100.00;100625.47;4792654;29;20039;-72
2024/01/06 05:40:21;;;;;;;25.70;13.07;;;;;;;3.94;100.00;100616.53;4790154;29;20127;-71
2024/01/06 05:42:46;;;;;;;21.85;12.00;;;;;;;4.00;100.00;100624.28;4789974;29;20035;-72
2024/01/06 05:45:15;;;;;;;20.98;11.90;;;;;;;3.94;100.00;100630.38;4794085;29;20035;-73
2024/01/06 05:47:40;;;;;;;27.38;13.65;;;;;;;3.80;100.00;100633.44;4789454;29;20169;-70
2024/01/06 05:50:09;;;;;;;25.67;12.80;;;;;;;3.72;100.00;100639.88;4794177;29;20619;-71
2024/01/06 05:52:34;;;;;;;21.55;11.52;;;;;;;3.45;100.00;100637.25;4792246;29;20034;-71
2024/01/06 05:54:59;;;;;;;23.50;12.40;;;;;;;3.44;100.00;100643.94;4793386;29;20035;-73
2024/01/06 05:57:25;;;;;;;20.77;11.45;;;;;;;3.53;100.00;100645.84;4796220;29;20034;-73
2024/01/06 05:59:50;;;;;;;22.55;13.13;;;;;;;3.62;100.00;100639.09;4787665;29;20058;-73
2024/01/06 06:02:16;;;;;;;22.20;11.70;;;;;;;3.60;100.00;100640.59;4792341;29;20045;-73
2024/01/06 06:04:41;;;;;;;19.08;11.30;;;;;;;3.55;100.00;100644.38;4795034;29;20031;-74
2024/01/06 06:07:06;;;;;;;18.85;10.52;;;;;;;3.53;100.00;100640.31;4795892;29;20409;-73
2024/01/06 06:09:34;;;;;;;21.30;12.18;;;;;;;3.35;100.00;100650.69;4794447;29;20030;-72
2024/01/06 06:12:00;;;;;;;27.10;11.82;;;;;;;3.54;100.00;100658.53;4799109;29;20389;-72
2024/01/06 06:14:25;;;;;;;21.38;11.93;;;;;;;3.30;100.00;100656.41;4797080;29;20028;-72
2024/01/06 06:16:50;;;;;;;21.15;11.13;;;;;;;3.31;100.00;100664.38;4795693;29;20118;-72
2024/01/06 06:19:17;;;;;;;20.73;12.05;;;;;;;3.32;100.00;100671.53;4791652;29;20039;-73
2024/01/06 06:21:43;;;;;;;18.30;10.32;;;;;;;3.05;100.00;100681.09;4796174;29;20035;-73
2024/01/06 06:24:08;;;;;;;22.83;11.25;;;;;;;3.10;100.00;100688.38;4798803;29;20050;-73
2024/01/06 06:26:36;;;;;;;19.42;11.13;;;;;;;3.31;100.00;100700.34;4797637;29;20055;-72
2024/01/06 06:29:02;;;;;;;21.98;11.35;;;;;;;3.02;100.00;100703.88;4801629;29;20052;-72
2024/01/06 06:31:27;;;;;;;18.55;10.82;;;;;;;3.23;100.00;100709.50;4803394;29;20074;-72
2024/01/06 06:33:53;;;;;;;20.08;10.27;;;;;;;3.24;100.00;100711.09;4797663;29;20064;-72
2024/01/06 06:36:18;;;;;;;17.50;9.85;;;;;;;3.28;100.00;100719.56;4796308;29;20141;-75
2024/01/06 06:38:43;;;;;;;20.48;10.75;;;;;;;3.31;100.00;100722.47;4796330;29;20038;-75
2024/01/06 06:41:09;;;;;;;20.55;9.68;;;;;;;3.21;100.00;100723.66;4802993;29;20031;-75
2024/01/06 06:43:34;;;;;;;21.90;9.68;;;;;;;2.96;100.00;100727.31;4795072;29;20035;-75
2024/01/06 06:45:59;;;;;;;21.92;11.52;;;;;;;2.92;100.00;100727.16;4798674;29;20031;-75
2024/01/06 06:48:25;;;;;;;15.52;8.88;;;;;;;3.11;100.00;100729.53;4790935;29;20092;-76
2024/01/06 06:50:50;;;;;;;15.80;9.30;;;;;;;3.36;100.00;100744.41;4795578;29;20035;-75
2024/01/06 06:53:16;;;;;;;16.85;9.85;;;;;;;3.21;100.00;100744.97;4797300;29;20058;-76
2024/01/06 06:55:41;;;;;;;19.52;10.00;;;;;;;2.97;100.00;100746.38;4798821;29;20081;-75
2024/01/06 06:58:06;;;;;;;20.17;10.13;;;;;;;3.29;100.00;100743.28;4796699;29;20509;-75
2024/01/06 07:00:32;;;;;;;19.30;10.07;;;;;;;3.12;100.00;100752.47;4798699;29;20125;-75
2024/01/06 07:02:58;;;;;;;20.80;11.07;;;;;;;3.55;100.00;100752.31;4794511;29;20042;-74
2024/01/06 07:05:24;;;;;;;20.20;11.07;;;;;;;3.53;100.00;100767.63;4797605;29;20043;-74
2024/01/06 07:07:49;;;;;;;22.23;10.25;;;;;;;3.19;100.00;100769.38;4796738;29;20041;-75
2024/01/06 07:10:14;;;;;;;19.15;10.85;;;;;;;3.37;100.00;100770.97;4796181;29;20036;-74
2024/01/06 07:12:40;;;;;;;18.55;11.10;;;;;;;3.61;100.00;100775.88;4797427;29;20030;-75
2024/01/06 07:15:06;;;;;;;17.52;10.50;;;;;;;3.54;100.00;100780.31;4800621;29;20073;-74
2024/01/06 07:17:31;;;;;;;25.02;11.05;;;;;;;3.73;100.00;100789.03;4798766;29;20039;-75
2024/01/06 07:19:56;;;;;;;19.90;10.65;;;;;;;3.70;100.00;100789.66;4800199;29;20035;-74
2024/01/06 07:22:22;;;;;;;21.52;10.05;;;;;;;3.36;100.00;100796.19;4793204;29;20049;-74
2024/01/06 07:24:47;;;;;;;18.10;10.40;;;;;;;3.14;100.00;100791.69;4792634;29;20132;-75
2024/01/06 07:27:13;;;;;;;20.90;11.65;;;;;;;3.19;100.00;100791.50;4800939;29;20051;-74
2024/01/06 07:29:38;;;;;;;21.83;10.88;;;;;;;3.17;100.00;100793.81;4798861;29;20041;-74
2024/01/06 07:32:06;;;;;;;19.38;10.80;;;;;;;3.30;100.00;100791.97;4802639;29;20042;-76
2024/01/06 07:34:31;;;;;;;24.23;12.18;;;;;;;2.97;100.00;100796.13;4800264;29;20046;-76
2024/01/06 07:36:57;;;;;;;16.45;10.32;;;;;;;2.85;100.00;100801.53;4797619;29;20039;-76
2024/01/06 07:39:24;;;;;;;19.77;10.93;;;;;;;2.90;100.00;100806.06;4796902;29;20467;-76
2024/01/06 07:41:49;;;;;;;17.85;9.52;;;;;;;2.73;100.00;100802.16;4795724;29;20505;-75
2024/01/06 07:44:15;;;;;;;20.45;10.23;;;;;;;2.68;100.00;100815.34;4787564;29;20047;-76
2024/01/06 07:46:41;;;;;;;22.13;11.20;;;;;;;2.77;100.00;100816.97;4795272;29;20069;-75
2024/01/06 07:49:06;;;;;;;21.45;9.93;;;;;;;2.81;100.00;100814.38;4795332;29;20030;-75
2024/01/06 07:51:32;;;;;;;18.95;10.52;;;;;;;2.84;100.00;100824.75;4797395;29;20031;-75
2024/01/06 07:53:58;;;;;;;17.13;10.68;;;;;;;3.09;100.00;100834.16;4794018;29;20497;-75
2024/01/06 07:56:23;;;;;;;24.38;12.80;;;;;;;2.95;100.00;100836.28;4794519;29;20125;-74
2024/01/06 07:58:49;;;;;;;21.92;10.90;;;;;;;3.02;100.00;100844.91;4792939;29;20130;-75
2024/01/06 08:01:14;;;;;;;20.27;10.80;;;;;;;2.94;100.00;100856.78;4796549;29;20039;-75
2024/01/06 08:03:39;;;;;;;19.90;10.27;;;;;;;2.96;100.00;100849.78;4794313;29;20786;-75
2024/01/06 08:06:06;;;;;;;19.98;10.13;;;;;;;2.99;100.00;100860.22;4793265;29;20074;-74
2024/01/06 08:08:31;;;;;;;17.35;11.40;;;;;;;2.87;100.00;100865.59;4790845;29;20062;-74
2024/01/06 08:10:56;;;;;;;24.80;11.20;;;;;;;2.94;100.00;100870.63;4795528;29;20569;-75
2024/01/06 08:13:22;;;;;;;19.38;9.20;;;;;;;4.06;100.00;100863.13;4795776;29;20438;-75
2024/01/06 08:15:48;;;;;;;22.02;12.20;;;;;;;3.43;100.00;100869.22;4794643;29;20490;-74
2024/01/06 08:18:14;;;;;;;19.85;10.05;;;;;;;3.08;100.00;100864.91;4798683;29;20137;-75
2024/01/06 08:20:39;;;;;;;16.48;9.52;;;;;;;3.17;100.00;100876.78;4795077;29;20070;-75
2024/01/06 08:23:04;;;;;;;19.08;11.00;;;;;;;3.22;100.00;100880.16;4790921;29;20035;-74
2024/01/06 08:25:30;;;;;;;19.10;9.98;;;;;;;3.08;100.00;100875.97;4793604;29;20775;-75
2024/01/06 08:27:55;;;;;;;18.60;10.68;;;;;;;3.11;100.00;100883.63;4798801;29;20030;-74
2024/01/06 08:30:20;;;;;;;21.20;9.45;;;;;;;3.27;100.00;100884.75;4800290;29;20046;-74
2024/01/06 08:32:46;;;;;;;17.88;9.60;;;;;;;3.18;100.00;100890.28;4800288;29;20037;-74
2024/01/06 08:35:11;;;;;;;16.13;10.25;;;;;;;3.16;100.00;100891.72;4793105;29;20039;-74
2024/01/06 08:37:36;;;;;;;15.02;9.43;;;;;;;3.46;100.00;100890.72;4797542;29;20081;-74
2024/01/06 08:40:03;;;;;;;18.95;11.38;;;;;;;3.19;100.00;100891.09;4802010;29;20098;-74
2024/01/06 08:42:29;;;;;;;17.48;9.32;;;;;;;3.16;100.00;100887.03;4801411;29;20042;-76
2024/01/06 08:44:54;;;;;;;20.60;10.52;;;;;;;3.57;100.00;100895.91;4797556;29;20087;-75
2024/01/06 08:47:19;;;;;;;17.90;10.02;;;;;;;3.15;100.00;100895.66;4800336;29;20042;-75
2024/01/06 08:49:44;;;;;;;19.17;9.60;;;;;;;3.08;100.00;100895.31;4799233;29;20031;-75
2024/01/06 08:52:10;;;;;;;18.83;8.75;;;;;;;3.03;100.00;100899.88;4801987;29;20099;-75
2024/01/06 08:54:35;;;;;;;17.17;10.13;;;;;;;3.35;100.00;100908.81;4795753;29;20031;-72
2024/01/06 08:57:01;;;;;;;14.02;9.52;;;;;;;3.10;100.00;100924.28;4800275;29;20095;-72
2024/01/06 08:59:26;;;;;;;16.00;9.95;;;;;;;2.87;100.00;100923.66;4797809;29;20112;-71
2024/01/06 09:01:52;;;;;;;15.75;9.30;;;;;;;2.78;100.00;100925.56;4800791;29;20047;-71
2024/01/06 09:04:18;;;;;;;14.60;9.25;;;;;;;2.73;100.00;100923.78;4789904;29;20479;-71
2024/01/06 09:06:43;;;;;;;20.30;10.70;;;;;;;2.67;100.00;100929.78;4787343;29;20039;-71
2024/01/06 09:09:09;;;;;;;21.20;10.00;;;;;;;2.84;100.00;100936.16;4793706;29;20176;-72
2024/01/06 09:11:35;;;;;;;14.18;8.68;;;;;;;2.86;100.00;100933.06;4797335;29;20149;-73
2024/01/06 09:14:00;;;;;;;17.40;9.63;;;;;;;2.83;100.00;100937.28;4791517;29;20541;-73
2024/01/06 09:16:26;;;;;;;18.58;9.82;;;;;;;2.81;100.00;100939.56;4797777;29;20043;-73
2024/01/06 09:18:51;;;;;;;19.38;10.65;;;;;;;3.00;100.00;100949.50;4796738;29;20051;-72
2024/01/06 09:21:17;;;;;;;17.13;9.85;;;;;;;2.97;100.00;100955.66;4788269;29;20030;-72
2024/01/06 09:23:43;;;;;;;15.45;10.35;;;;;;;3.18;100.00;100955.84;4786385;29;20031;-72
2024/01/06 09:26:08;;;;;;;15.43;9.55;;;;;;;2.96;100.00;100960.41;4786831;29;20112;-73
2024/01/06 09:28:33;;;;;;;15.07;9.10;;;;;;;2.61;100.00;100949.31;4786416;29;20395;-72
2024/01/06 09:30:59;;;;;;;17.13;10.40;;;;;;;2.96;100.00;100965.13;4791134;29;20474;-72
2024/01/06 09:33:24;;;;;;;15.45;9.45;;;;;;;2.89;100.00;100959.25;4793563;29;20545;-71
2024/01/06 09:35:50;;;;;;;15.88;10.93;;;;;;;2.81;100.00;100974.69;4795325;29;20588;-71
2024/01/06 09:38:15;;;;;;;15.43;9.68;;;;;;;2.68;100.00;100970.09;4794172;29;20120;-74
2024/01/06 09:40:43;;;;;;;16.05;10.07;;;;;;;2.44;100.00;100972.16;4794429;29;20035;-75
2024/01/06 09:43:09;;;;;;;16.85;10.45;;;;;;;2.55;100.00;100983.75;4798004;29;20068;-74
2024/01/06 09:45:34;;;;;;;20.98;11.13;;;;;;;2.57;100.00;100988.94;4787281;29;20039;-75
2024/01/06 09:48:22;;;;;;;14.93;10.35;;;;;;;2.82;100.00;100995.66;4789809;29;20059;-74
2024/01/06 09:50:51;;;;;;;16.42;9.48;;;;;;;2.85;100.00;100995.03;4789533;29;20034;-72
2024/01/06 09:53:17;;;;;;;13.75;9.25;;;;;;;2.75;100.00;100998.09;4790260;29;20031;-72
2024/01/06 09:55:44;;;;;;;15.05;10.25;;;;;;;2.62;100.00;101003.44;4793971;29;20457;-71
2024/01/06 09:58:10;;;;;;;15.95;9.85;;;;;;;2.82;100.00;101004.75;4790097;29;20555;-71
2024/01/06 10:00:35;;;;;;;17.00;10.38;;;;;;;2.86;100.00;101010.47;4793409;29;20039;-71
2024/01/06 10:03:01;;;;;;;15.55;9.77;;;;;;;2.99;100.00;101001.25;4792762;29;20067;-72
2024/01/06 10:05:26;;;;;;;15.93;10.00;;;;;;;2.83;100.00;101009.16;4787307;29;20027;-74
2024/01/06 10:07:52;;;;;;;16.90;10.05;;;;;;;2.84;100.00;101012.75;4793084;29;20034;-74
2024/01/06 10:10:17;;;;;;;19.55;10.18;;;;;;;2.89;100.00;101012.59;4792371;29;20065;-74
2024/01/06 10:12:43;;;;;;;17.85;10.15;;;;;;;3.07;100.00;101007.09;4796230;29;20066;-74
2024/01/06 10:15:10;;;;;;;19.02;10.52;;;;;;;3.16;100.00;101017.03;4790270;29;20439;-74
2024/01/06 10:17:40;;;;;;;19.63;11.05;;;;;;;2.98;100.00;101018.16;4787025;29;20474;-74
2024/01/06 10:20:10;;;;;;;20.40;11.48;;;;;;;2.93;100.00;101021.06;4789390;29;20042;-74
2024/01/06 10:22:41;;;;;;;18.00;10.68;;;;;;;2.94;100.00;101023.50;4788650;29;20835;-74
2024/01/06 10:25:11;;;;;;;22.23;11.05;;;;;;;2.97;100.00;101027.56;4790025;29;20190;-74
2024/01/06 10:27:41;;;;;;;18.40;11.40;;;;;;;2.83;100.00;101025.75;4784436;29;20131;-74
2024/01/06 10:30:08;;;;;;;17.23;10.98;;;;;;;2.99;100.00;101037.19;4788730;29;20030;-74
2024/01/06 10:32:36;;;;;;;21.85;11.65;;;;;;;2.63;100.00;101037.41;4793056;29;20071;-74
2024/01/06 10:35:03;;;;;;;18.50;11.18;;;;;;;2.89;100.00;101042.19;4791822;29;20031;-74
2024/01/06 10:37:29;;;;;;;16.83;10.05;;;;;;;2.77;100.00;101040.06;4791198;29;20047;-74
2024/01/06 10:40:07;;;;;;;24.48;12.80;;;;;;;2.96;100.00;101048.06;4790354;29;20051;-74
2024/01/06 10:42:33;;;;;;;19.70;11.45;;;;;;;3.02;100.00;101046.78;4788577;29;20545;-74
2024/01/06 10:45:00;;;;;;;21.13;11.43;;;;;;;2.96;100.00;101050.84;4789337;29;20042;-74
2024/01/06 10:47:26;;;;;;;23.48;12.90;;;;;;;2.97;100.00;101057.97;4786764;29;20515;-74
2024/01/06 10:49:54;;;;;;;21.35;12.32;;;;;;;2.76;100.00;101057.75;4787757;29;20126;-74
2024/01/06 10:52:20;;;;;;;23.95;13.25;;;;;;;3.01;100.00;101056.19;4789687;29;20387;-74
2024/01/06 10:54:50;;;;;;;18.38;11.65;;;;;;;2.97;100.00;101049.69;4786891;29;20063;-73
2024/01/06 10:57:17;;;;;;;23.20;12.07;;;;;;;3.03;100.00;101053.94;4787105;29;20065;-75
2024/01/06 10:59:43;;;;;;;24.13;12.10;;;;;;;3.07;100.00;101054.91;4786468;29;20435;-75
2024/01/06 11:02:11;;;;;;;24.17;12.80;;;;;;;2.71;100.00;101063.44;4786522;29;20541;-75
2024/01/06 11:04:37;;;;;;;22.58;13.50;;;;;;;2.76;100.00;101064.13;4786369;29;20035;-75